createdAt,value
2017-01-28T00:00:02.475Z,974.44
2017-01-28T00:00:32.509Z,974.44
2017-01-28T00:01:02.544Z,974.45
2017-01-28T00:01:32.642Z,974.42
2017-01-28T00:02:02.618Z,974.45
2017-01-28T00:02:32.648Z,974.4
2017-01-28T00:03:02.683Z,974.43
2017-01-28T00:03:32.718Z,974.42
2017-01-28T00:04:02.753Z,974.45
2017-01-28T00:04:32.788Z,974.44
2017-01-28T00:05:02.825Z,974.45
2017-01-28T00:05:32.856Z,974.4
2017-01-28T00:06:02.897Z,974.43
2017-01-28T00:06:32.929Z,974.43
2017-01-28T00:07:02.967Z,974.43
2017-01-28T00:07:33.001Z,974.44
2017-01-28T00:08:03.034Z,974.42
2017-01-28T00:08:33.070Z,974.45
2017-01-28T00:09:03.103Z,974.42
2017-01-28T00:09:33.140Z,974.44
2017-01-28T00:10:03.197Z,974.43
2017-01-28T00:10:33.209Z,974.46
2017-01-28T00:11:03.244Z,974.48
2017-01-28T00:11:33.279Z,974.44
2017-01-28T00:12:03.314Z,974.43
2017-01-28T00:12:33.348Z,974.45
2017-01-28T00:13:03.385Z,974.43
2017-01-28T00:13:33.421Z,974.45
2017-01-28T00:14:03.454Z,974.48
2017-01-28T00:14:33.554Z,974.49
2017-01-28T00:15:03.523Z,974.48
2017-01-28T00:15:33.565Z,974.48
2017-01-28T00:16:03.595Z,974.44
2017-01-28T00:16:33.630Z,974.43
2017-01-28T00:17:03.665Z,974.43
2017-01-28T00:17:33.701Z,974.47
2017-01-28T00:18:03.735Z,974.47
2017-01-28T00:18:33.770Z,974.47
2017-01-28T00:19:03.803Z,974.51
2017-01-28T00:19:33.839Z,974.46
2017-01-28T00:20:03.874Z,974.42
2017-01-28T00:20:33.907Z,974.44
2017-01-28T00:21:03.946Z,974.42
2017-01-28T00:21:33.983Z,974.45
2017-01-28T00:22:04.014Z,974.41
2017-01-28T00:22:34.050Z,974.43
2017-01-28T00:23:04.087Z,974.44
2017-01-28T00:23:34.126Z,974.39
2017-01-28T00:24:04.155Z,974.41
2017-01-28T00:24:34.191Z,974.4
2017-01-28T00:25:04.225Z,974.42
2017-01-28T00:25:34.260Z,974.37
2017-01-28T00:26:04.293Z,974.36
2017-01-28T00:26:34.328Z,974.35
2017-01-28T00:27:04.363Z,974.34
2017-01-28T00:27:34.397Z,974.3
2017-01-28T00:28:04.434Z,974.36
2017-01-28T00:28:34.479Z,974.31
2017-01-28T00:29:04.504Z,974.37
2017-01-28T00:29:34.539Z,974.36
2017-01-28T00:30:04.574Z,974.38
2017-01-28T00:30:34.609Z,974.4
2017-01-28T00:31:04.647Z,974.38
2017-01-28T00:31:34.679Z,974.41
2017-01-28T00:32:04.713Z,974.38
2017-01-28T00:32:34.748Z,974.4
2017-01-28T00:33:04.784Z,974.39
2017-01-28T00:33:34.819Z,974.44
2017-01-28T00:34:04.853Z,974.4
2017-01-28T00:34:34.888Z,974.4
2017-01-28T00:35:04.924Z,974.39
2017-01-28T00:35:34.958Z,974.42
2017-01-28T00:36:04.993Z,974.4
2017-01-28T00:36:35.029Z,974.4
2017-01-28T00:37:05.063Z,974.39
2017-01-28T00:37:35.102Z,974.37
2017-01-28T00:38:05.133Z,974.39
2017-01-28T00:38:35.169Z,974.37
2017-01-28T00:39:05.204Z,974.36
2017-01-28T00:39:35.237Z,974.35
2017-01-28T00:40:05.273Z,974.36
2017-01-28T00:40:35.309Z,974.36
2017-01-28T00:41:05.345Z,974.37
2017-01-28T00:41:35.378Z,974.4
2017-01-28T00:42:05.414Z,974.4
2017-01-28T00:42:35.448Z,974.38
2017-01-28T00:43:05.484Z,974.37
2017-01-28T00:43:35.518Z,974.41
2017-01-28T00:44:05.552Z,974.35
2017-01-28T00:44:35.588Z,974.41
2017-01-28T00:45:05.624Z,974.37
2017-01-28T00:45:35.658Z,974.38
2017-01-28T00:46:05.691Z,974.34
2017-01-28T00:46:35.727Z,974.37
2017-01-28T00:47:05.763Z,974.35
2017-01-28T00:47:35.796Z,974.34
2017-01-28T00:48:05.834Z,974.35
2017-01-28T00:48:35.867Z,974.37
2017-01-28T00:49:05.904Z,974.38
2017-01-28T00:49:35.937Z,974.39
2017-01-28T00:50:05.970Z,974.39
2017-01-28T00:50:36.007Z,974.37
2017-01-28T00:51:06.043Z,974.4
2017-01-28T00:51:36.076Z,974.39
2017-01-28T00:52:06.113Z,974.39
2017-01-28T00:52:36.147Z,974.41
2017-01-28T00:53:06.184Z,974.38
2017-01-28T00:53:36.217Z,974.37
2017-01-28T00:54:06.252Z,974.37
2017-01-28T00:54:36.292Z,974.37
2017-01-28T00:55:06.320Z,974.4
2017-01-28T00:55:36.357Z,974.37
2017-01-28T00:56:06.392Z,974.39
2017-01-28T00:56:36.427Z,974.41
2017-01-28T00:57:06.462Z,974.39
2017-01-28T00:57:36.497Z,974.42
2017-01-28T00:58:06.533Z,974.41
2017-01-28T00:58:36.566Z,974.41
2017-01-28T00:59:06.602Z,974.44
2017-01-28T00:59:36.636Z,974.44
2017-01-28T01:00:06.671Z,974.41
2017-01-28T01:00:36.705Z,974.38
2017-01-28T01:01:06.741Z,974.43
2017-01-28T01:01:36.778Z,974.44
2017-01-28T01:02:06.811Z,974.41
2017-01-28T01:02:36.847Z,974.42
2017-01-28T01:03:06.880Z,974.45
2017-01-28T01:03:36.915Z,974.43
2017-01-28T01:04:06.950Z,974.42
2017-01-28T01:04:36.987Z,974.45
2017-01-28T01:05:07.048Z,974.45
2017-01-28T01:05:37.056Z,974.45
2017-01-28T01:06:07.090Z,974.43
2017-01-28T01:06:37.127Z,974.47
2017-01-28T01:07:07.160Z,974.45
2017-01-28T01:07:37.195Z,974.47
2017-01-28T01:08:07.231Z,974.45
2017-01-28T01:08:37.267Z,974.44
2017-01-28T01:09:07.302Z,974.47
2017-01-28T01:09:37.340Z,974.47
2017-01-28T01:10:07.371Z,974.48
2017-01-28T01:10:37.407Z,974.43
2017-01-28T01:11:07.442Z,974.42
2017-01-28T01:11:37.477Z,974.47
2017-01-28T01:12:07.515Z,974.44
2017-01-28T01:12:37.546Z,974.41
2017-01-28T01:13:07.580Z,974.42
2017-01-28T01:13:37.615Z,974.41
2017-01-28T01:14:07.651Z,974.42
2017-01-28T01:14:37.722Z,974.37
2017-01-28T01:15:07.719Z,974.42
2017-01-28T01:15:37.756Z,974.45
2017-01-28T01:16:07.788Z,974.44
2017-01-28T01:16:37.825Z,974.49
2017-01-28T01:17:07.861Z,974.43
2017-01-28T01:17:37.895Z,974.45
2017-01-28T01:18:07.930Z,974.45
2017-01-28T01:18:37.966Z,974.48
2017-01-28T01:19:08.000Z,974.46
2017-01-28T01:19:38.033Z,974.5
2017-01-28T01:20:08.071Z,974.51
2017-01-28T01:20:38.102Z,974.48
2017-01-28T01:21:08.139Z,974.51
2017-01-28T01:21:38.173Z,974.46
2017-01-28T01:22:08.215Z,974.46
2017-01-28T01:22:38.244Z,974.45
2017-01-28T01:23:08.279Z,974.46
2017-01-28T01:23:38.314Z,974.47
2017-01-28T01:24:08.349Z,974.48
2017-01-28T01:24:38.383Z,974.46
2017-01-28T01:25:08.420Z,974.51
2017-01-28T01:25:38.483Z,974.51
2017-01-28T01:26:08.489Z,974.51
2017-01-28T01:26:38.525Z,974.53
2017-01-28T01:27:08.560Z,974.55
2017-01-28T01:27:38.599Z,974.54
2017-01-28T01:28:08.628Z,974.51
2017-01-28T01:28:38.663Z,974.52
2017-01-28T01:29:08.699Z,974.53
2017-01-28T01:29:38.734Z,974.53
2017-01-28T01:30:08.768Z,974.56
2017-01-28T01:30:38.804Z,974.56
2017-01-28T01:31:08.839Z,974.52
2017-01-28T01:31:38.874Z,974.58
2017-01-28T01:32:08.907Z,974.49
2017-01-28T01:32:38.944Z,974.51
2017-01-28T01:33:08.979Z,974.48
2017-01-28T01:33:39.014Z,974.51
2017-01-28T01:34:09.047Z,974.48
2017-01-28T01:34:39.084Z,974.55
2017-01-28T01:35:09.118Z,974.53
2017-01-28T01:35:39.159Z,974.52
2017-01-28T01:36:10.102Z,974.53
2017-01-28T01:36:39.229Z,974.52
2017-01-28T01:37:09.292Z,974.52
2017-01-28T01:37:39.294Z,974.54
2017-01-28T01:38:09.328Z,974.52
2017-01-28T01:38:39.362Z,974.5
2017-01-28T01:39:09.399Z,974.49
2017-01-28T01:39:39.433Z,974.49
2017-01-28T01:40:09.466Z,974.49
2017-01-28T01:40:39.504Z,974.47
2017-01-28T01:41:09.537Z,974.44
2017-01-28T01:41:39.571Z,974.5
2017-01-28T01:42:09.607Z,974.49
2017-01-28T01:42:39.644Z,974.48
2017-01-28T01:43:09.676Z,974.5
2017-01-28T01:43:39.711Z,974.48
2017-01-28T01:44:09.747Z,974.5
2017-01-28T01:44:39.781Z,974.46
2017-01-28T01:45:09.816Z,974.54
2017-01-28T01:45:39.852Z,974.49
2017-01-28T01:46:09.886Z,974.47
2017-01-28T01:46:39.921Z,974.49
2017-01-28T01:47:09.955Z,974.53
2017-01-28T01:47:39.991Z,974.49
2017-01-28T01:48:10.028Z,974.5
2017-01-28T01:48:40.063Z,974.47
2017-01-28T01:49:10.096Z,974.5
2017-01-28T01:49:40.132Z,974.53
2017-01-28T01:50:10.168Z,974.51
2017-01-28T01:50:40.201Z,974.53
2017-01-28T01:51:10.236Z,974.54
2017-01-28T01:51:40.271Z,974.49
2017-01-28T01:52:10.305Z,974.52
2017-01-28T01:52:40.342Z,974.5
2017-01-28T01:53:10.375Z,974.53
2017-01-28T01:53:40.411Z,974.51
2017-01-28T01:54:10.445Z,974.55
2017-01-28T01:54:40.479Z,974.5
2017-01-28T01:55:10.539Z,974.54
2017-01-28T01:55:40.550Z,974.53
2017-01-28T01:56:10.591Z,974.5
2017-01-28T01:56:40.621Z,974.48
2017-01-28T01:57:10.656Z,974.51
2017-01-28T01:57:40.690Z,974.51
2017-01-28T01:58:10.725Z,974.52
2017-01-28T01:58:40.761Z,974.51
2017-01-28T01:59:10.795Z,974.53
2017-01-28T01:59:40.829Z,974.52
2017-01-28T02:00:10.865Z,974.54
2017-01-28T02:00:40.899Z,974.56
2017-01-28T02:01:10.935Z,974.56
2017-01-28T02:01:40.969Z,974.56
2017-01-28T02:02:11.007Z,974.6
2017-01-28T02:02:41.040Z,974.59
2017-01-28T02:03:11.074Z,974.55
2017-01-28T02:03:41.108Z,974.6
2017-01-28T02:04:11.145Z,974.58
2017-01-28T02:04:41.179Z,974.64
2017-01-28T02:05:11.213Z,974.6
2017-01-28T02:05:41.249Z,974.61
2017-01-28T02:06:11.285Z,974.56
2017-01-28T02:06:41.319Z,974.51
2017-01-28T02:07:11.353Z,974.55
2017-01-28T02:07:41.389Z,974.54
2017-01-28T02:08:11.424Z,974.5
2017-01-28T02:08:41.460Z,974.5
2017-01-28T02:09:11.495Z,974.48
2017-01-28T02:09:41.529Z,974.56
2017-01-28T02:10:11.564Z,974.5
2017-01-28T02:10:41.598Z,974.46
2017-01-28T02:11:11.635Z,974.52
2017-01-28T02:11:41.669Z,974.48
2017-01-28T02:12:11.704Z,974.5
2017-01-28T02:12:41.740Z,974.46
2017-01-28T02:13:11.773Z,974.5
2017-01-28T02:13:41.809Z,974.45
2017-01-28T02:14:11.846Z,974.47
2017-01-28T02:14:41.885Z,974.45
2017-01-28T02:15:11.916Z,974.47
2017-01-28T02:15:41.952Z,974.41
2017-01-28T02:16:11.986Z,974.42
2017-01-28T02:16:42.047Z,974.43
2017-01-28T02:17:12.056Z,974.44
2017-01-28T02:17:42.089Z,974.38
2017-01-28T02:18:12.126Z,974.43
2017-01-28T02:18:42.163Z,974.42
2017-01-28T02:19:12.196Z,974.48
2017-01-28T02:19:42.231Z,974.48
2017-01-28T02:20:12.265Z,974.49
2017-01-28T02:20:42.299Z,974.46
2017-01-28T02:21:12.335Z,974.51
2017-01-28T02:21:42.370Z,974.5
2017-01-28T02:22:12.406Z,974.49
2017-01-28T02:22:42.439Z,974.52
2017-01-28T02:23:12.476Z,974.49
2017-01-28T02:23:42.510Z,974.53
2017-01-28T02:24:12.544Z,974.54
2017-01-28T02:24:42.579Z,974.52
2017-01-28T02:25:12.615Z,974.52
2017-01-28T02:25:42.649Z,974.51
2017-01-28T02:26:12.685Z,974.55
2017-01-28T02:26:42.720Z,974.56
2017-01-28T02:27:12.754Z,974.54
2017-01-28T02:27:42.793Z,974.56
2017-01-28T02:28:12.825Z,974.56
2017-01-28T02:28:42.860Z,974.53
2017-01-28T02:29:12.894Z,974.57
2017-01-28T02:29:42.931Z,974.53
2017-01-28T02:30:12.964Z,974.54
2017-01-28T02:30:43.000Z,974.54
2017-01-28T02:31:13.040Z,974.51
2017-01-28T02:31:43.070Z,974.52
2017-01-28T02:32:13.104Z,974.54
2017-01-28T02:32:43.139Z,974.57
2017-01-28T02:33:13.176Z,974.55
2017-01-28T02:33:43.210Z,974.52
2017-01-28T02:34:13.244Z,974.57
2017-01-28T02:34:43.280Z,974.54
2017-01-28T02:35:13.314Z,974.56
2017-01-28T02:35:43.350Z,974.58
2017-01-28T02:36:13.385Z,974.59
2017-01-28T02:36:43.419Z,974.55
2017-01-28T02:37:13.454Z,974.53
2017-01-28T02:37:43.490Z,974.53
2017-01-28T02:38:13.524Z,974.51
2017-01-28T02:38:43.561Z,974.52
2017-01-28T02:39:13.596Z,974.5
2017-01-28T02:39:43.631Z,974.5
2017-01-28T02:40:13.666Z,974.47
2017-01-28T02:40:43.700Z,974.46
2017-01-28T02:41:13.735Z,974.46
2017-01-28T02:41:43.770Z,974.52
2017-01-28T02:42:13.805Z,974.53
2017-01-28T02:42:43.840Z,974.52
2017-01-28T02:43:13.877Z,974.52
2017-01-28T02:43:43.911Z,974.48
2017-01-28T02:44:13.944Z,974.49
2017-01-28T02:44:43.980Z,974.48
2017-01-28T02:45:14.014Z,974.49
2017-01-28T02:45:44.050Z,974.49
2017-01-28T02:46:14.084Z,974.49
2017-01-28T02:46:44.120Z,974.51
2017-01-28T02:47:14.154Z,974.51
2017-01-28T02:47:44.191Z,974.5
2017-01-28T02:48:14.226Z,974.51
2017-01-28T02:48:44.260Z,974.51
2017-01-28T02:49:14.296Z,974.49
2017-01-28T02:49:44.330Z,974.52
2017-01-28T02:50:14.365Z,974.53
2017-01-28T02:50:44.401Z,974.49
2017-01-28T02:51:14.435Z,974.49
2017-01-28T02:51:44.472Z,974.48
2017-01-28T02:52:14.504Z,974.49
2017-01-28T02:52:44.541Z,974.5
2017-01-28T02:53:14.575Z,974.52
2017-01-28T02:53:44.610Z,974.51
2017-01-28T02:54:14.645Z,974.52
2017-01-28T02:54:44.681Z,974.52
2017-01-28T02:55:14.717Z,974.55
2017-01-28T02:55:44.750Z,974.51
2017-01-28T02:56:14.784Z,974.53
2017-01-28T02:56:44.821Z,974.52
2017-01-28T02:57:14.856Z,974.54
2017-01-28T02:57:44.889Z,974.54
2017-01-28T02:58:14.925Z,974.53
2017-01-28T02:58:44.959Z,974.5
2017-01-28T02:59:14.995Z,974.52
2017-01-28T02:59:45.031Z,974.54
2017-01-28T03:00:15.065Z,974.48
2017-01-28T03:00:45.100Z,974.51
2017-01-28T03:01:15.134Z,974.53
2017-01-28T03:01:45.170Z,974.52
2017-01-28T03:02:15.205Z,974.53
2017-01-28T03:02:45.240Z,974.5
2017-01-28T03:03:15.276Z,974.49
2017-01-28T03:03:45.309Z,974.51
2017-01-28T03:04:15.344Z,974.48
2017-01-28T03:04:45.378Z,974.5
2017-01-28T03:05:15.415Z,974.55
2017-01-28T03:05:45.449Z,974.55
2017-01-28T03:06:15.486Z,974.54
2017-01-28T03:06:45.520Z,974.53
2017-01-28T03:07:15.554Z,974.49
2017-01-28T03:07:45.588Z,974.52
2017-01-28T03:08:15.625Z,974.51
2017-01-28T03:08:45.659Z,974.52
2017-01-28T03:09:15.694Z,974.51
2017-01-28T03:09:45.728Z,974.53
2017-01-28T03:10:15.765Z,974.53
2017-01-28T03:10:45.799Z,974.53
2017-01-28T03:11:15.833Z,974.54
2017-01-28T03:11:45.867Z,974.55
2017-01-28T03:12:15.903Z,974.55
2017-01-28T03:12:45.937Z,974.57
2017-01-28T03:13:15.973Z,974.57
2017-01-28T03:13:46.006Z,974.58
2017-01-28T03:14:16.041Z,974.55
2017-01-28T03:14:46.076Z,974.57
2017-01-28T03:15:16.113Z,974.57
2017-01-28T03:15:46.147Z,974.6
2017-01-28T03:16:16.184Z,974.57
2017-01-28T03:16:46.243Z,974.57
2017-01-28T03:17:16.250Z,974.58
2017-01-28T03:17:46.297Z,974.61
2017-01-28T03:18:16.321Z,974.58
2017-01-28T03:18:46.356Z,974.62
2017-01-28T03:19:16.392Z,974.57
2017-01-28T03:19:46.429Z,974.58
2017-01-28T03:20:16.462Z,974.59
2017-01-28T03:20:46.495Z,974.6
2017-01-28T03:21:16.530Z,974.62
2017-01-28T03:21:46.567Z,974.6
2017-01-28T03:22:16.601Z,974.64
2017-01-28T03:22:46.636Z,974.61
2017-01-28T03:23:16.695Z,974.62
2017-01-28T03:23:46.707Z,974.61
2017-01-28T03:24:16.743Z,974.63
2017-01-28T03:24:46.776Z,974.61
2017-01-28T03:25:16.812Z,974.64
2017-01-28T03:25:46.848Z,974.65
2017-01-28T03:26:16.881Z,974.64
2017-01-28T03:26:46.916Z,974.59
2017-01-28T03:27:16.952Z,974.64
2017-01-28T03:27:46.987Z,974.66
2017-01-28T03:28:17.020Z,974.59
2017-01-28T03:28:47.055Z,974.65
2017-01-28T03:29:17.092Z,974.68
2017-01-28T03:29:47.127Z,974.65
2017-01-28T03:30:17.161Z,974.63
2017-01-28T03:30:47.196Z,974.65
2017-01-28T03:31:17.231Z,974.66
2017-01-28T03:31:47.266Z,974.62
2017-01-28T03:32:17.300Z,974.63
2017-01-28T03:32:47.338Z,974.63
2017-01-28T03:33:17.371Z,974.63
2017-01-28T03:33:47.407Z,974.64
2017-01-28T03:34:17.440Z,974.64
2017-01-28T03:34:47.475Z,974.64
2017-01-28T03:35:17.509Z,974.64
2017-01-28T03:35:47.545Z,974.65
2017-01-28T03:36:17.581Z,974.63
2017-01-28T03:36:47.616Z,974.62
2017-01-28T03:37:17.651Z,974.62
2017-01-28T03:37:47.684Z,974.64
2017-01-28T03:38:17.727Z,974.64
2017-01-28T03:38:47.756Z,974.58
2017-01-28T03:39:17.790Z,974.6
2017-01-28T03:39:47.827Z,974.6
2017-01-28T03:40:17.862Z,974.65
2017-01-28T03:40:47.895Z,974.62
2017-01-28T03:41:17.930Z,974.61
2017-01-28T03:41:47.966Z,974.61
2017-01-28T03:42:18.002Z,974.59
2017-01-28T03:42:48.035Z,974.62
2017-01-28T03:43:18.071Z,974.61
2017-01-28T03:43:48.107Z,974.61
2017-01-28T03:44:18.141Z,974.62
2017-01-28T03:44:48.176Z,974.62
2017-01-28T03:45:18.210Z,974.57
2017-01-28T03:45:48.244Z,974.65
2017-01-28T03:46:18.281Z,974.62
2017-01-28T03:46:48.315Z,974.63
2017-01-28T03:47:18.350Z,974.63
2017-01-28T03:47:48.387Z,974.62
2017-01-28T03:48:18.421Z,974.65
2017-01-28T03:48:48.456Z,974.65
2017-01-28T03:49:18.491Z,974.65
2017-01-28T03:49:48.528Z,974.68
2017-01-28T03:50:18.563Z,974.71
2017-01-28T03:50:48.597Z,974.65
2017-01-28T03:51:18.632Z,974.7
2017-01-28T03:51:48.669Z,974.72
2017-01-28T03:52:18.703Z,974.7
2017-01-28T03:52:48.737Z,974.73
2017-01-28T03:53:18.776Z,974.72
2017-01-28T03:53:48.809Z,974.7
2017-01-28T03:54:18.842Z,974.72
2017-01-28T03:54:48.878Z,974.7
2017-01-28T03:55:18.914Z,974.71
2017-01-28T03:55:48.948Z,974.73
2017-01-28T03:56:18.985Z,974.72
2017-01-28T03:56:49.024Z,974.71
2017-01-28T03:57:19.065Z,974.71
2017-01-28T03:57:49.088Z,974.71
2017-01-28T03:58:19.129Z,974.73
2017-01-28T03:58:49.161Z,974.75
2017-01-28T03:59:19.196Z,974.79
2017-01-28T03:59:49.231Z,974.79
2017-01-28T04:00:19.265Z,974.82
2017-01-28T04:00:49.300Z,974.8
2017-01-28T04:01:19.336Z,974.84
2017-01-28T04:01:49.441Z,974.83
2017-01-28T04:02:19.596Z,974.84
2017-01-28T04:02:49.481Z,974.85
2017-01-28T04:03:19.478Z,974.82
2017-01-28T04:03:49.514Z,974.87
2017-01-28T04:04:19.549Z,974.85
2017-01-28T04:04:49.585Z,974.87
2017-01-28T04:05:19.619Z,974.85
2017-01-28T04:05:49.655Z,974.86
2017-01-28T04:06:19.693Z,974.84
2017-01-28T04:06:49.726Z,974.88
2017-01-28T04:07:19.760Z,974.87
2017-01-28T04:07:49.797Z,974.85
2017-01-28T04:08:19.831Z,974.87
2017-01-28T04:08:49.870Z,974.85
2017-01-28T04:09:19.905Z,974.82
2017-01-28T04:09:49.941Z,974.84
2017-01-28T04:10:19.975Z,974.83
2017-01-28T04:10:50.011Z,974.78
2017-01-28T04:11:20.050Z,974.82
2017-01-28T04:11:50.083Z,974.79
2017-01-28T04:12:20.118Z,974.82
2017-01-28T04:12:50.153Z,974.83
2017-01-28T04:13:20.188Z,974.84
2017-01-28T04:13:50.224Z,974.78
2017-01-28T04:14:20.259Z,974.8
2017-01-28T04:14:50.294Z,974.8
2017-01-28T04:15:20.331Z,974.83
2017-01-28T04:15:50.368Z,974.81
2017-01-28T04:16:20.403Z,974.78
2017-01-28T04:16:50.438Z,974.75
2017-01-28T04:17:20.485Z,974.8
2017-01-28T04:17:50.510Z,974.79
2017-01-28T04:18:20.546Z,974.81
2017-01-28T04:18:50.581Z,974.81
2017-01-28T04:19:20.615Z,974.84
2017-01-28T04:19:50.653Z,974.79
2017-01-28T04:20:20.687Z,974.81
2017-01-28T04:20:50.723Z,974.8
2017-01-28T04:21:20.758Z,974.81
2017-01-28T04:21:50.794Z,974.81
2017-01-28T04:22:20.830Z,974.84
2017-01-28T04:22:50.865Z,974.79
2017-01-28T04:23:20.902Z,974.83
2017-01-28T04:23:50.938Z,974.85
2017-01-28T04:24:20.974Z,974.86
2017-01-28T04:24:51.009Z,974.86
2017-01-28T04:25:21.044Z,974.85
2017-01-28T04:25:51.079Z,974.83
2017-01-28T04:26:21.117Z,974.81
2017-01-28T04:26:51.154Z,974.85
2017-01-28T04:27:21.189Z,974.83
2017-01-28T04:27:51.225Z,974.82
2017-01-28T04:28:21.260Z,974.84
2017-01-28T04:28:51.295Z,974.84
2017-01-28T04:29:21.333Z,974.84
2017-01-28T04:29:51.368Z,974.83
2017-01-28T04:30:21.412Z,974.8
2017-01-28T04:30:51.442Z,974.79
2017-01-28T04:31:21.475Z,974.77
2017-01-28T04:31:51.511Z,974.83
2017-01-28T04:32:21.547Z,974.78
2017-01-28T04:32:51.582Z,974.8
2017-01-28T04:33:21.619Z,974.81
2017-01-28T04:33:51.670Z,974.8
2017-01-28T04:34:21.692Z,974.85
2017-01-28T04:34:51.728Z,974.85
2017-01-28T04:35:21.769Z,974.85
2017-01-28T04:35:51.800Z,974.87
2017-01-28T04:36:21.836Z,974.85
2017-01-28T04:36:51.873Z,974.84
2017-01-28T04:37:21.910Z,974.82
2017-01-28T04:37:51.946Z,974.84
2017-01-28T04:38:21.981Z,974.85
2017-01-28T04:38:52.020Z,974.84
2017-01-28T04:39:22.054Z,974.83
2017-01-28T04:39:52.091Z,974.85
2017-01-28T04:40:22.125Z,974.82
2017-01-28T04:40:52.162Z,974.83
2017-01-28T04:41:22.196Z,974.84
2017-01-28T04:41:52.232Z,974.8
2017-01-28T04:42:22.268Z,974.83
2017-01-28T04:42:52.306Z,974.83
2017-01-28T04:43:22.342Z,974.86
2017-01-28T04:43:52.377Z,974.88
2017-01-28T04:44:22.414Z,974.88
2017-01-28T04:44:52.449Z,974.91
2017-01-28T04:45:22.485Z,974.9
2017-01-28T04:45:52.522Z,974.89
2017-01-28T04:46:22.557Z,974.92
2017-01-28T04:46:52.594Z,974.89
2017-01-28T04:47:22.630Z,974.91
2017-01-28T04:47:52.687Z,974.9
2017-01-28T04:48:22.701Z,974.93
2017-01-28T04:48:52.737Z,974.9
2017-01-28T04:49:22.777Z,974.89
2017-01-28T04:49:52.810Z,974.88
2017-01-28T04:50:22.846Z,974.9
2017-01-28T04:50:52.881Z,974.88
2017-01-28T04:51:22.918Z,974.87
2017-01-28T04:51:52.955Z,974.89
2017-01-28T04:52:22.991Z,974.86
2017-01-28T04:52:53.027Z,974.87
2017-01-28T04:53:23.062Z,974.89
2017-01-28T04:53:53.099Z,974.91
2017-01-28T04:54:23.139Z,974.9
2017-01-28T04:54:53.174Z,974.9
2017-01-28T04:55:23.208Z,974.9
2017-01-28T04:55:53.244Z,974.88
2017-01-28T04:56:23.281Z,974.88
2017-01-28T04:56:53.319Z,974.9
2017-01-28T04:57:23.351Z,974.89
2017-01-28T04:57:53.389Z,974.9
2017-01-28T04:58:23.428Z,974.89
2017-01-28T04:58:53.465Z,974.89
2017-01-28T04:59:23.498Z,974.93
2017-01-28T04:59:53.534Z,974.96
2017-01-28T05:00:23.570Z,974.93
2017-01-28T05:00:53.607Z,974.95
2017-01-28T05:01:23.642Z,974.96
2017-01-28T05:01:53.678Z,974.94
2017-01-28T05:02:23.714Z,974.94
2017-01-28T05:02:53.750Z,974.91
2017-01-28T05:03:23.789Z,974.88
2017-01-28T05:03:53.825Z,974.87
2017-01-28T05:04:23.862Z,974.93
2017-01-28T05:04:53.895Z,974.92
2017-01-28T05:05:23.934Z,974.96
2017-01-28T05:05:53.968Z,974.96
2017-01-28T05:06:24.005Z,975
2017-01-28T05:06:54.041Z,974.98
2017-01-28T05:07:24.077Z,974.98
2017-01-28T05:07:54.113Z,975.01
2017-01-28T05:08:24.150Z,975
2017-01-28T05:08:54.213Z,975
2017-01-28T05:09:24.222Z,975.03
2017-01-28T05:09:54.259Z,975.02
2017-01-28T05:10:24.295Z,975.06
2017-01-28T05:10:54.329Z,975.03
2017-01-28T05:11:24.368Z,975.07
2017-01-28T05:11:54.403Z,975.05
2017-01-28T05:12:24.438Z,975.02
2017-01-28T05:12:54.479Z,975.04
2017-01-28T05:13:24.512Z,975.03
2017-01-28T05:13:54.547Z,975.01
2017-01-28T05:14:24.583Z,975.04
2017-01-28T05:14:54.620Z,975.03
2017-01-28T05:15:24.656Z,975.05
2017-01-28T05:15:54.692Z,975.08
2017-01-28T05:16:24.728Z,975.06
2017-01-28T05:16:54.765Z,975.09
2017-01-28T05:17:24.801Z,975.12
2017-01-28T05:17:54.838Z,975.07
2017-01-28T05:18:24.873Z,975.06
2017-01-28T05:18:54.908Z,975.05
2017-01-28T05:19:24.946Z,975.08
2017-01-28T05:19:54.982Z,975.11
2017-01-28T05:20:25.018Z,975.13
2017-01-28T05:20:55.053Z,975.08
2017-01-28T05:21:25.091Z,975.11
2017-01-28T05:21:55.128Z,975.11
2017-01-28T05:22:25.169Z,975.09
2017-01-28T05:22:55.201Z,975.11
2017-01-28T05:23:25.237Z,975.09
2017-01-28T05:23:55.273Z,975.08
2017-01-28T05:24:25.309Z,975.12
2017-01-28T05:24:55.345Z,975.15
2017-01-28T05:25:25.382Z,975.15
2017-01-28T05:25:55.418Z,975.12
2017-01-28T05:26:25.456Z,975.17
2017-01-28T05:26:55.489Z,975.17
2017-01-28T05:27:25.526Z,975.14
2017-01-28T05:27:55.565Z,975.16
2017-01-28T05:28:25.598Z,975.18
2017-01-28T05:28:55.633Z,975.16
2017-01-28T05:29:25.672Z,975.2
2017-01-28T05:29:55.707Z,975.21
2017-01-28T05:30:25.745Z,975.21
2017-01-28T05:30:55.780Z,975.21
2017-01-28T05:31:25.817Z,975.19
2017-01-28T05:31:55.851Z,975.19
2017-01-28T05:32:25.890Z,975.2
2017-01-28T05:32:55.924Z,975.24
2017-01-28T05:33:25.962Z,975.2
2017-01-28T05:33:55.998Z,975.21
2017-01-28T05:34:26.032Z,975.25
2017-01-28T05:34:56.069Z,975.25
2017-01-28T05:35:26.107Z,975.22
2017-01-28T05:35:56.142Z,975.24
2017-01-28T05:36:26.179Z,975.25
2017-01-28T05:36:56.215Z,975.22
2017-01-28T05:37:26.251Z,975.27
2017-01-28T05:37:56.289Z,975.26
2017-01-28T05:38:26.322Z,975.25
2017-01-28T05:38:56.360Z,975.25
2017-01-28T05:39:26.395Z,975.24
2017-01-28T05:39:56.432Z,975.24
2017-01-28T05:40:26.469Z,975.25
2017-01-28T05:40:56.507Z,975.27
2017-01-28T05:41:26.543Z,975.2
2017-01-28T05:41:56.575Z,975.24
2017-01-28T05:42:26.614Z,975.25
2017-01-28T05:42:56.652Z,975.2
2017-01-28T05:43:26.687Z,975.24
2017-01-28T05:43:56.722Z,975.21
2017-01-28T05:44:26.759Z,975.21
2017-01-28T05:44:56.794Z,975.17
2017-01-28T05:45:26.831Z,975.18
2017-01-28T05:45:56.874Z,975.16
2017-01-28T05:46:26.904Z,975.15
2017-01-28T05:46:56.939Z,975.15
2017-01-28T05:47:26.976Z,975.15
2017-01-28T05:47:57.011Z,975.17
2017-01-28T05:48:27.048Z,975.16
2017-01-28T05:48:57.085Z,975.12
2017-01-28T05:49:27.121Z,975.15
2017-01-28T05:49:57.185Z,975.12
2017-01-28T05:50:27.193Z,975.13
2017-01-28T05:50:57.230Z,975.12
2017-01-28T05:51:27.269Z,975.11
2017-01-28T05:51:57.302Z,975.13
2017-01-28T05:52:27.338Z,975.13
2017-01-28T05:52:57.375Z,975.17
2017-01-28T05:53:27.410Z,975.19
2017-01-28T05:53:57.445Z,975.17
2017-01-28T05:54:27.483Z,975.19
2017-01-28T05:54:57.527Z,975.17
2017-01-28T05:55:27.555Z,975.16
2017-01-28T05:55:57.591Z,975.17
2017-01-28T05:56:27.628Z,975.15
2017-01-28T05:56:57.663Z,975.17
2017-01-28T05:57:27.703Z,975.17
2017-01-28T05:57:57.737Z,975.16
2017-01-28T05:58:27.773Z,975.17
2017-01-28T05:58:57.807Z,975.15
2017-01-28T05:59:27.845Z,975.15
2017-01-28T05:59:57.909Z,975.17
2017-01-28T06:00:27.918Z,975.16
2017-01-28T06:00:57.955Z,975.17
2017-01-28T06:01:27.991Z,975.14
2017-01-28T06:01:58.026Z,975.15
2017-01-28T06:02:28.063Z,975.18
2017-01-28T06:02:58.100Z,975.16
2017-01-28T06:03:28.137Z,975.18
2017-01-28T06:03:58.173Z,975.19
2017-01-28T06:04:28.208Z,975.16
2017-01-28T06:04:58.244Z,975.16
2017-01-28T06:05:28.279Z,975.19
2017-01-28T06:05:58.316Z,975.19
2017-01-28T06:06:28.353Z,975.19
2017-01-28T06:06:58.388Z,975.2
2017-01-28T06:07:28.626Z,975.22
2017-01-28T06:07:58.460Z,975.21
2017-01-28T06:08:28.499Z,975.2
2017-01-28T06:08:58.536Z,975.23
2017-01-28T06:09:28.600Z,975.21
2017-01-28T06:09:58.696Z,975.25
2017-01-28T06:10:28.644Z,975.22
2017-01-28T06:10:58.679Z,975.21
2017-01-28T06:11:28.717Z,975.23
2017-01-28T06:11:58.752Z,975.25
2017-01-28T06:12:28.877Z,975.26
2017-01-28T06:12:58.825Z,975.27
2017-01-28T06:13:28.863Z,975.29
2017-01-28T06:13:58.900Z,975.3
2017-01-28T06:14:28.935Z,975.27
2017-01-28T06:14:58.970Z,975.31
2017-01-28T06:15:29.006Z,975.27
2017-01-28T06:15:59.050Z,975.24